Time;durP1;ratioP1;P1;durP2;ratioP2;P2;SDS_P1;SDS_P2;PMS_P1;PMS_P2;Temp;Humidity;BMP_temperature;BMP_pressure;BME280_temperature;BME280_humidity;BME280_pressure;Samples;Min_cycle;Max_cycle;Signal;HPM_P1;HPM_P2
2021/01/03 00:02:11;;;;;;;20.98;10.88;;;-2.30;87.00;;;-3.18;72.29;91227.25;5025312;28;20032;-41
2021/01/03 00:04:42;;;;;;;20.30;10.75;;;-2.20;86.70;;;-3.10;71.26;91224.91;5025176;28;20072;-40
2021/01/03 00:07:10;;;;;;;21.15;10.50;;;-2.10;86.50;;;-3.02;71.72;91234.16;5025055;28;20030;-40
2021/01/03 00:09:39;;;;;;;16.23;10.15;;;-2.00;86.20;;;-3.07;71.63;91219.16;5042895;28;20045;-40
2021/01/03 00:12:07;;;;;;;16.67;9.15;;;-2.00;86.40;;;-3.06;71.30;91230.47;5024654;28;20041;-42
2021/01/03 00:14:36;;;;;;;18.65;9.48;;;-2.00;86.10;;;-3.07;71.40;91228.88;5042499;28;20060;-42
2021/01/03 00:17:07;;;;;;;19.45;11.13;;;-2.00;85.80;;;-3.08;71.16;91228.09;5042213;28;20100;-40
2021/01/03 00:19:36;;;;;;;16.42;8.23;;;-2.00;85.70;;;-2.99;71.00;91236.25;5042599;28;20052;-41
2021/01/03 00:22:05;;;;;;;27.85;12.02;;;-2.00;85.50;;;-3.16;71.40;91240.94;5042132;28;20096;-40
2021/01/03 00:24:34;;;;;;;21.60;11.38;;;-2.10;86.30;;;-3.23;71.71;91253.50;5042445;28;20068;-41
2021/01/03 00:27:01;;;;;;;22.55;11.57;;;-2.10;86.40;;;-3.28;71.47;91237.72;5042517;28;20080;-40
2021/01/03 00:29:28;;;;;;;20.15;10.10;;;-2.20;86.30;;;-3.23;72.04;91243.00;5024741;28;20112;-41
2021/01/03 00:31:59;;;;;;;20.25;10.07;;;-2.20;86.70;;;-3.12;71.98;91244.63;5042287;28;20037;-40
2021/01/03 00:34:27;;;;;;;17.30;9.40;;;-2.20;86.80;;;-3.12;71.91;91236.75;5025274;28;20039;-40
2021/01/03 00:36:55;;;;;;;17.85;9.93;;;-2.10;86.70;;;-3.09;71.67;91239.63;5044820;28;20063;-40
2021/01/03 00:39:22;;;;;;;19.85;11.02;;;-2.10;86.60;;;-3.10;71.85;91245.16;5026965;28;20087;-40
2021/01/03 00:41:51;;;;;;;28.23;15.15;;;-2.10;86.70;;;-3.14;71.05;91251.97;5043149;28;20025;-40
2021/01/03 00:44:18;;;;;;;26.10;13.15;;;-2.00;86.90;;;-3.17;71.18;91257.75;5043106;28;20057;-41
2021/01/03 00:46:46;;;;;;;23.67;13.57;;;-2.00;86.10;;;-3.11;71.29;91254.88;5043592;28;20049;-40
2021/01/03 00:49:13;;;;;;;24.20;13.65;;;-2.00;85.70;;;-3.18;71.75;91253.53;5009260;28;20025;-40
2021/01/03 00:51:39;;;;;;;30.02;13.90;;;-2.10;85.80;;;-3.32;72.36;91249.78;5025800;28;20037;-40
2021/01/03 00:54:06;;;;;;;22.48;11.07;;;-2.10;86.30;;;-3.24;72.17;91249.28;5043279;28;20032;-41
2021/01/03 00:56:33;;;;;;;20.27;11.60;;;-2.20;86.40;;;-3.24;72.28;91249.28;5043115;28;20292;-40
2021/01/03 00:59:00;;;;;;;21.63;9.88;;;-2.20;86.50;;;-3.21;71.80;91241.69;5043276;28;20032;-40
2021/01/03 01:01:28;;;;;;;18.50;9.43;;;-2.20;86.70;;;-3.29;72.22;91251.91;5043079;28;20283;-41
2021/01/03 01:03:55;;;;;;;19.83;11.48;;;-2.30;86.70;;;-3.46;72.75;91257.31;5042808;28;20096;-41
2021/01/03 01:06:23;;;;;;;23.48;12.18;;;-2.40;87.20;;;-3.50;72.49;91254.44;5042734;28;20029;-41
2021/01/03 01:08:51;;;;;;;23.65;12.40;;;-2.40;87.60;;;-3.46;72.72;91263.38;5025572;28;20324;-40
2021/01/03 01:11:18;;;;;;;21.67;11.63;;;-2.40;88.00;;;-3.32;72.66;91268.19;5043150;28;20134;-40
2021/01/03 01:13:45;;;;;;;17.40;9.85;;;-2.30;87.70;;;-3.26;72.15;91262.69;5042770;28;20163;-40
2021/01/03 01:16:12;;;;;;;21.73;10.20;;;-2.20;87.40;;;-3.21;71.74;91264.56;5024936;28;20033;-40
2021/01/03 01:18:39;;;;;;;15.05;9.05;;;-2.10;87.00;;;-3.15;71.72;91258.25;5042885;28;20029;-40
2021/01/03 01:21:07;;;;;;;20.58;9.50;;;-2.10;86.30;;;-3.26;71.51;91267.13;5042482;28;20116;-41
2021/01/03 01:23:35;;;;;;;14.95;8.65;;;-2.20;86.10;;;-3.39;72.26;91272.88;5042186;28;20037;-40
2021/01/03 01:26:03;;;;;;;16.52;10.10;;;-2.40;86.60;;;-3.42;72.34;91276.00;5042459;28;20242;-40
2021/01/03 01:28:30;;;;;;;18.00;9.73;;;-2.50;87.50;;;-3.38;72.45;91283.13;5041834;28;20033;-40
2021/01/03 01:30:58;;;;;;;21.55;10.40;;;-2.40;88.10;;;-3.42;72.41;91280.19;5042577;28;20212;-40
2021/01/03 01:33:25;;;;;;;26.77;12.27;;;-2.50;88.00;;;-3.53;72.21;91270.69;5042501;28;20025;-40
2021/01/03 01:35:54;;;;;;;22.70;12.70;;;-2.50;87.90;;;-3.61;72.89;91268.53;5023609;28;20366;-41
2021/01/03 01:38:23;;;;;;;22.13;12.43;;;-2.60;88.20;;;-3.57;72.88;91261.72;5041128;28;20155;-41
2021/01/03 01:40:54;;;;;;;22.98;12.35;;;-2.60;88.80;;;-3.39;72.78;91268.41;5041020;28;20029;-41
2021/01/03 01:43:22;;;;;;;27.08;11.93;;;-2.50;88.40;;;-3.36;72.31;91267.09;5041341;28;20029;-41
2021/01/03 01:45:49;;;;;;;19.05;10.68;;;-2.40;87.70;;;-3.39;72.55;91275.50;5001010;28;20273;-42
2021/01/03 01:48:33;;;;;;;23.77;12.10;;;-2.40;87.90;;;-3.28;71.81;91277.94;5003378;28;20202;-40
2021/01/03 01:51:19;;;;;;;19.45;10.45;;;-2.30;87.50;;;-3.25;71.68;91271.34;5003109;28;20318;-40
2021/01/03 01:54:33;;;;;;;19.10;10.05;;;-2.30;87.10;;;-3.26;71.98;91272.41;5003125;28;20037;-41
2021/01/03 01:57:26;;;;;;;22.55;11.07;;;-2.30;87.10;;;-3.51;72.14;91267.81;5001720;28;20330;-41
2021/01/03 02:00:23;;;;;;;18.70;10.82;;;-2.50;87.20;;;-3.52;72.54;91267.00;5001437;28;20049;-41
2021/01/03 02:03:37;;;;;;;20.05;11.52;;;-2.50;87.80;;;-3.51;72.31;91258.09;5001185;28;20405;-41
2021/01/03 02:06:38;;;;;;;20.77;11.18;;;-2.40;87.30;;;-3.59;72.31;91271.72;5002362;28;20061;-40
2021/01/03 02:09:25;;;;;;;24.75;11.98;;;-2.50;87.30;;;-3.59;72.29;91274.34;4986008;28;20077;-40
2021/01/03 02:12:19;;;;;;;18.48;11.15;;;-2.60;87.70;;;-3.59;72.61;91265.66;4986411;28;20030;-40
2021/01/03 02:14:47;;;;;;;19.05;10.05;;;-2.50;88.20;;;-3.51;72.84;91268.59;5002503;28;20044;-40
2021/01/03 02:17:14;;;;;;;22.27;10.65;;;-2.50;88.20;;;-3.70;72.27;91267.44;5002389;28;20076;-41
2021/01/03 02:19:41;;;;;;;20.80;11.13;;;-2.60;87.50;;;-3.83;73.15;91272.34;5002080;28;20041;-41
2021/01/03 02:22:49;;;;;;;22.55;11.65;;;-2.70;88.00;;;-3.71;73.20;91275.56;4984874;28;20340;-42
2021/01/03 02:25:18;;;;;;;18.40;10.65;;;-2.60;88.50;;;-3.54;72.66;91268.31;5001434;28;20062;-41
2021/01/03 02:28:22;;;;;;;19.45;10.15;;;-2.50;88.40;;;-3.50;72.63;91261.50;5002964;28;20314;-40
2021/01/03 02:30:57;;;;;;;23.27;9.88;;;-2.50;88.20;;;-3.39;72.93;91268.41;5002670;28;20076;-40
2021/01/03 02:33:36;;;;;;;19.27;9.90;;;-2.40;88.40;;;-3.36;72.55;91259.22;5002044;28;20030;-41
2021/01/03 02:36:35;;;;;;;16.88;9.23;;;-2.30;88.30;;;-3.45;72.49;91259.72;4970470;28;20029;-41
2021/01/03 02:39:55;;;;;;;17.40;9.88;;;-2.40;88.50;;;-3.38;72.92;91270.00;4996390;28;20226;-40
2021/01/03 02:42:35;;;;;;;18.13;8.88;;;-2.40;88.90;;;-3.21;72.58;91270.59;5002139;28;20034;-40
2021/01/03 02:45:19;;;;;;;19.15;9.25;;;-2.30;88.70;;;-3.07;71.82;91276.19;5026396;28;20061;-40
2021/01/03 02:47:49;;;;;;;15.43;8.35;;;-2.20;88.30;;;-2.90;72.15;91274.13;5040118;28;20036;-40
2021/01/03 02:50:23;;;;;;;17.95;8.70;;;-2.10;88.20;;;-2.93;72.45;91272.03;5040006;28;20320;-41
2021/01/03 02:52:53;;;;;;;15.60;8.38;;;-2.20;89.00;;;-2.76;71.98;91271.84;5040080;28;20025;-40
2021/01/03 02:55:22;;;;;;;14.63;8.38;;;-2.10;89.40;;;-2.70;72.76;91261.09;5039945;28;20033;-40
2021/01/03 02:57:50;;;;;;;20.08;8.60;;;-2.00;89.60;;;-2.61;72.55;91264.78;5039889;28;20088;-41
2021/01/03 03:00:28;;;;;;;16.33;9.07;;;-1.90;89.60;;;-2.58;72.65;91271.34;5039988;28;20105;-40
2021/01/03 03:02:58;;;;;;;17.27;9.32;;;-1.80;89.70;;;-2.59;72.83;91269.78;5022338;28;20225;-41
2021/01/03 03:05:26;;;;;;;18.80;8.48;;;-1.80;90.20;;;-2.54;72.70;91269.00;5040670;28;20030;-40
2021/01/03 03:07:55;;;;;;;19.35;9.98;;;-1.80;89.80;;;-3.34;72.44;91272.91;5042678;28;20327;-40
2021/01/03 03:10:23;;;;;;;22.75;11.10;;;-2.20;87.70;;;-3.76;74.10;91271.06;5042115;28;20157;-44
2021/01/03 03:12:54;;;;;;;21.52;9.77;;;-2.60;89.20;;;-3.50;74.04;91264.94;5042235;28;20232;-40
2021/01/03 03:15:28;;;;;;;16.33;9.43;;;-2.50;90.20;;;-3.31;73.82;91267.91;5042798;28;20049;-40
2021/01/03 03:17:55;;;;;;;18.30;8.93;;;-2.40;90.30;;;-3.15;73.66;91263.53;5041630;28;20021;-41
2021/01/03 03:20:23;;;;;;;17.50;8.73;;;-2.30;90.30;;;-3.17;74.08;91266.44;5023350;28;20079;-40
2021/01/03 03:22:50;;;;;;;15.93;9.05;;;-2.40;90.50;;;-3.21;74.53;91256.69;5040774;28;20028;-40
2021/01/03 03:25:20;;;;;;;22.05;9.68;;;-2.30;90.70;;;-3.25;74.57;91247.72;5023666;28;20033;-41
2021/01/03 03:27:47;;;;;;;16.08;9.45;;;-2.30;90.80;;;-3.12;74.39;91258.56;5023639;28;20047;-41
2021/01/03 03:30:20;;;;;;;19.40;10.18;;;-2.30;90.80;;;-3.17;74.35;91253.28;5040726;28;20372;-41
2021/01/03 03:32:52;;;;;;;;;;;-2.30;90.90;;;-3.08;74.75;91243.06;5023091;28;20044;-42
2021/01/03 03:35:25;;;;;;;17.38;9.40;;;-2.20;90.90;;;-3.13;75.11;91240.41;5024046;28;20188;-40
2021/01/03 03:37:53;;;;;;;15.18;9.10;;;-2.20;90.80;;;-3.25;74.70;91237.19;5040979;28;20029;-41
2021/01/03 03:40:22;;;;;;;17.52;9.75;;;-2.30;90.50;;;-3.73;75.01;91235.66;5040946;28;20101;-41
2021/01/03 03:42:49;;;;;;;23.85;10.25;;;-2.60;90.60;;;-3.84;75.29;91247.13;5040453;28;20029;-40
2021/01/03 03:45:18;;;;;;;20.85;10.95;;;-2.70;90.70;;;-3.69;75.35;91245.41;5040268;28;20283;-40
2021/01/03 03:47:45;;;;;;;17.90;9.85;;;-2.70;91.00;;;-3.53;75.29;91252.31;5040764;28;20029;-40
2021/01/03 03:50:24;;;;;;;17.80;9.45;;;-2.60;91.00;;;-3.37;74.67;91249.78;5040934;28;20025;-40
2021/01/03 03:52:53;;;;;;;18.10;9.48;;;-2.50;90.80;;;-3.30;74.35;91250.31;5044871;28;20031;-40
2021/01/03 03:55:21;;;;;;;18.92;9.95;;;-2.40;90.50;;;-3.22;74.66;91239.34;5045287;28;20079;-41
2021/01/03 03:57:48;;;;;;;16.13;9.13;;;-2.30;90.50;;;-3.56;74.90;91247.56;5026697;28;20044;-40
2021/01/03 04:00:24;;;;;;;16.83;9.15;;;-2.50;90.50;;;-3.62;75.47;91248.56;5045204;28;20092;-41
2021/01/03 04:02:53;;;;;;;17.05;9.77;;;-2.60;90.90;;;-3.63;76.18;91254.09;5028472;28;20025;-40
2021/01/03 04:05:25;;;;;;;18.90;9.70;;;-2.70;91.00;;;-3.60;75.91;91258.81;5043802;28;20355;-40
2021/01/03 04:07:53;;;;;;;19.35;10.38;;;-2.70;91.20;;;-3.45;75.02;91254.44;5042588;28;20044;-40
2021/01/03 04:10:29;;;;;;;20.02;9.82;;;-2.50;91.10;;;-3.53;75.12;91256.78;5042631;28;20305;-42
2021/01/03 04:12:57;;;;;;;20.08;10.40;;;-2.70;91.10;;;-3.55;75.06;91249.16;5026780;28;20025;-40
2021/01/03 04:15:25;;;;;;;16.90;9.73;;;-2.70;91.20;;;-3.47;74.98;91251.28;5044112;28;20079;-40
2021/01/03 04:17:52;;;;;;;20.45;10.38;;;-2.60;91.00;;;-3.48;74.95;91254.19;5042795;28;20242;-40
2021/01/03 04:20:22;;;;;;;20.25;10.55;;;-2.50;91.00;;;-3.59;75.20;91248.06;5024865;28;20017;-40
2021/01/03 04:22:50;;;;;;;29.02;9.60;;;-2.60;90.90;;;-3.55;74.90;91249.16;5042372;28;20034;-41
2021/01/03 04:25:22;;;;;;;15.05;8.63;;;-2.50;90.70;;;-3.56;75.19;91237.06;5025087;28;20049;-41
2021/01/03 04:27:53;;;;;;;21.45;10.68;;;-2.60;90.60;;;-3.51;74.96;91236.28;5025211;28;20033;-41
2021/01/03 04:30:25;;;;;;;18.10;10.05;;;-2.60;90.80;;;-3.41;74.68;91244.22;5024643;28;20244;-40
2021/01/03 04:32:55;;;;;;;25.48;13.18;;;-2.50;90.70;;;-3.67;74.90;91245.13;5042415;28;20064;-40
2021/01/03 04:35:24;;;;;;;25.83;13.07;;;-2.60;90.70;;;-3.77;74.55;91260.81;5024444;28;20200;-41
2021/01/03 04:37:55;;;;;;;25.08;12.55;;;-2.70;90.80;;;-3.66;75.41;91251.97;5008209;28;20343;-41
2021/01/03 04:40:30;;;;;;;25.05;12.32;;;-2.60;90.80;;;-3.71;74.68;91263.22;5024986;28;20057;-41
2021/01/03 04:43:02;;;;;;;26.63;12.40;;;-2.70;90.90;;;-3.70;75.34;91264.00;5042133;28;20072;-40
2021/01/03 04:45:41;;;;;;;20.42;11.63;;;-2.70;90.80;;;-3.72;75.29;91269.50;5024396;28;20109;-40
2021/01/03 04:48:29;;;;;;;19.98;9.85;;;-2.70;90.90;;;-3.58;74.58;91268.03;5024726;28;20029;-40
2021/01/03 04:51:33;;;;;;;19.45;11.15;;;-2.60;90.80;;;-3.54;74.77;91270.94;5042099;28;20041;-41
2021/01/03 04:54:09;;;;;;;21.30;11.00;;;-2.50;90.60;;;-3.61;75.03;91268.53;5041836;28;20103;-40
2021/01/03 04:56:42;;;;;;;21.52;11.43;;;-2.60;90.80;;;-3.70;75.47;91272.69;5041995;28;20263;-40
2021/01/03 04:59:23;;;;;;;21.30;11.15;;;-2.70;90.90;;;-3.71;75.35;91271.09;5041668;28;20030;-40
2021/01/03 05:02:25;;;;;;;21.02;10.55;;;-2.60;90.90;;;-3.73;74.99;91281.06;5041585;28;20027;-41
2021/01/03 05:05:46;;;;;;;18.48;10.35;;;-2.70;90.70;;;-3.81;75.21;91271.03;5041584;28;20033;-42
2021/01/03 05:08:24;;;;;;;17.20;10.43;;;-2.80;90.80;;;-3.78;75.28;91275.75;5025465;28;20053;-40
2021/01/03 05:10:52;;;;;;;19.00;9.93;;;-2.70;91.00;;;-3.71;75.72;91272.94;5041496;28;20030;-40
2021/01/03 05:14:06;;;;;;;21.88;10.63;;;-2.80;91.10;;;-3.55;74.51;91280.66;5023727;28;20041;-41
2021/01/03 05:16:34;;;;;;;18.55;9.65;;;-2.60;91.00;;;-3.46;74.90;91279.13;5041570;28;20036;-40
2021/01/03 05:19:03;;;;;;;20.00;11.43;;;-2.60;90.70;;;-3.64;74.45;91290.06;5041399;28;20022;-40
2021/01/03 05:21:54;;;;;;;19.35;10.75;;;-2.60;90.30;;;-3.72;74.60;91293.13;5024114;28;20306;-40
2021/01/03 05:24:42;;;;;;;24.55;11.45;;;-2.70;90.50;;;-3.65;74.91;91288.47;5041247;28;20030;-40
2021/01/03 05:27:19;;;;;;;22.13;11.73;;;-2.70;90.50;;;-3.70;75.21;91291.06;5042831;28;20052;-41
2021/01/03 05:29:48;;;;;;;20.77;10.60;;;-2.70;90.50;;;-3.83;75.66;91293.34;5042247;28;20268;-41
2021/01/03 05:32:32;;;;;;;17.40;9.45;;;-2.70;90.90;;;-3.67;75.12;91295.00;5023782;28;20100;-40
2021/01/03 05:35:03;;;;;;;20.63;10.82;;;-2.70;90.80;;;-3.62;75.08;91287.97;5041233;28;20037;-40
2021/01/03 05:37:41;;;;;;;17.77;10.25;;;-2.70;90.80;;;-3.61;74.42;91302.66;5043108;28;20025;-40
2021/01/03 05:40:42;;;;;;;18.92;10.38;;;-2.60;90.90;;;-3.58;74.66;91302.19;5043504;28;20339;-40
2021/01/03 05:43:24;;;;;;;21.77;11.40;;;-2.60;90.90;;;-3.48;74.36;91306.72;5009178;28;20065;-40
2021/01/03 05:46:14;;;;;;;19.70;10.70;;;-2.50;90.70;;;-3.79;74.97;91305.72;5043576;28;20046;-40
2021/01/03 05:49:22;;;;;;;26.85;11.35;;;-2.70;90.50;;;-3.76;75.20;91301.78;5043973;28;20083;-40
2021/01/03 05:52:15;;;;;;;21.60;11.02;;;-2.70;90.90;;;-3.74;75.02;91307.56;4996464;28;20324;-40
2021/01/03 05:54:41;;;;;;;21.77;11.67;;;-2.70;90.80;;;-3.90;75.21;91311.91;5012737;28;20041;-40
2021/01/03 05:57:23;;;;;;;24.75;12.38;;;-2.70;90.80;;;-3.98;75.70;91309.75;5026389;28;20288;-40
2021/01/03 05:59:50;;;;;;;18.67;11.18;;;-2.90;91.00;;;-3.82;75.34;91311.44;5028271;28;20029;-40
2021/01/03 06:02:30;;;;;;;23.98;11.20;;;-2.80;91.20;;;-3.80;75.21;91308.56;5025143;28;20056;-40
2021/01/03 06:05:24;;;;;;;21.63;11.27;;;-2.80;91.20;;;-3.82;75.91;91311.44;5042066;28;20036;-40
2021/01/03 06:08:28;;;;;;;19.25;10.45;;;-2.80;91.10;;;-3.84;75.60;91313.53;5042733;28;20028;-40
2021/01/03 06:11:09;;;;;;;18.67;10.65;;;-2.80;91.20;;;-3.77;75.55;91319.34;5026131;28;20075;-39
2021/01/03 06:13:54;;;;;;;19.83;10.68;;;-2.70;91.20;;;-3.79;75.68;91318.84;5016801;28;20091;-39
2021/01/03 06:16:42;;;;;;;18.38;9.93;;;-2.80;91.10;;;-3.76;75.34;91331.44;5053240;28;20324;-39
2021/01/03 06:19:36;;;;;;;21.50;11.05;;;-2.70;90.90;;;-3.85;75.29;91325.09;5026615;28;20504;-39
2021/01/03 06:22:52;;;;;;;17.75;10.68;;;-2.80;90.90;;;-3.96;75.47;91326.03;5010430;28;20038;-38
2021/01/03 06:26:00;;;;;;;19.95;11.02;;;-2.80;90.90;;;-4.19;76.01;91321.88;5023891;28;20272;-39
2021/01/03 06:28:51;;;;;;;22.20;11.05;;;-3.00;91.10;;;-4.22;76.22;91335.50;5022753;28;20033;-39
2021/01/03 06:31:43;;;;;;;20.95;12.32;;;-3.10;91.30;;;-4.31;75.98;91334.38;5022244;28;20030;-39
2021/01/03 06:34:41;;;;;;;23.23;11.60;;;-3.30;91.30;;;-4.22;76.33;91329.47;5023305;28;20252;-38
2021/01/03 06:37:21;;;;;;;21.15;11.43;;;-3.20;91.60;;;-4.22;76.45;91332.91;5023573;28;20036;-39
2021/01/03 06:40:41;;;;;;;19.15;10.98;;;-3.20;91.60;;;-4.46;77.04;91348.16;5007009;28;20026;-39
2021/01/03 06:43:44;;;;;;;26.33;13.32;;;-3.30;91.60;;;-4.46;76.71;91342.91;5023480;28;20233;-40
2021/01/03 06:46:48;;;;;;;19.92;10.50;;;-3.30;92.00;;;-4.24;76.32;91339.41;4984089;28;20062;-41
2021/01/03 06:50:35;;;;;;;22.98;12.07;;;-3.20;91.80;;;-4.47;77.01;91348.38;4984009;28;20306;-40
2021/01/03 06:53:52;;;;;;;22.00;11.27;;;-3.30;91.60;;;-4.22;76.93;91348.63;4907237;29;20274;-40
2021/01/03 06:56:50;;;;;;;19.13;11.05;;;-3.20;91.70;;;-4.13;76.00;91348.97;4924449;29;20124;-40
2021/01/03 07:00:07;;;;;;;19.80;11.15;;;-3.10;91.30;;;-4.21;75.32;91347.59;4993428;28;20030;-41
2021/01/03 07:02:41;;;;;;;19.00;10.10;;;-3.10;91.20;;;-4.25;76.09;91356.22;5003410;28;20195;-40
2021/01/03 07:05:10;;;;;;;21.00;12.05;;;-3.20;91.30;;;-4.22;75.83;91350.47;4986606;28;20321;-40
2021/01/03 07:07:43;;;;;;;28.23;15.93;;;-3.10;91.20;;;-4.46;76.13;91356.00;5003374;28;20030;-40
2021/01/03 07:10:21;;;;;;;25.83;14.70;;;-3.40;91.20;;;-4.43;76.02;91366.00;4970932;28;20032;-40
2021/01/03 07:12:52;;;;;;;25.42;15.40;;;-3.40;91.50;;;-4.32;76.26;91361.66;5002167;28;20030;-40
2021/01/03 07:15:29;;;;;;;25.90;16.17;;;-3.30;91.50;;;-4.20;75.74;91372.00;5003021;28;20030;-39
2021/01/03 07:17:55;;;;;;;26.95;14.90;;;-3.20;91.40;;;-4.02;75.16;91375.06;5003750;28;20030;-40
2021/01/03 07:21:06;;;;;;;26.98;15.35;;;-3.10;91.10;;;-3.95;74.73;91369.63;5003233;28;20031;-41
2021/01/03 07:23:43;;;;;;;21.85;12.05;;;-3.00;90.90;;;-3.79;74.03;91373.16;5002915;28;20337;-40
2021/01/03 07:26:33;;;;;;;27.10;16.35;;;-2.90;90.60;;;-4.03;74.54;91367.44;5003304;28;20145;-40
2021/01/03 07:29:17;;;;;;;22.58;12.20;;;-3.10;90.60;;;-3.82;74.10;91384.94;5006832;28;20217;-41
2021/01/03 07:32:17;;;;;;;22.20;13.55;;;-3.10;90.70;;;-3.78;73.76;91387.88;4989529;28;20033;-39
2021/01/03 07:34:52;;;;;;;29.23;15.98;;;-3.00;90.50;;;-3.73;73.90;91396.56;4998245;28;20280;-39
2021/01/03 07:37:30;;;;;;;25.95;16.02;;;-2.90;90.70;;;-3.93;73.81;91402.44;5006013;28;20105;-39
2021/01/03 07:40:17;;;;;;;24.83;14.65;;;-3.10;90.60;;;-3.93;74.94;91410.31;4989833;28;20026;-39
2021/01/03 07:44:06;;;;;;;29.15;15.05;;;-3.10;91.00;;;-3.65;74.28;91409.25;5007644;28;20134;-40
2021/01/03 07:46:45;;;;;;;27.35;15.38;;;-3.00;91.00;;;-3.33;72.18;91401.38;4987159;28;20230;-40
2021/01/03 07:49:45;;;;;;;33.70;18.17;;;-2.80;90.40;;;-3.24;71.53;91401.69;5001635;28;20034;-40
2021/01/03 07:52:20;;;;;;;60.53;30.10;;;-2.60;90.00;;;-3.34;71.65;91393.75;4986955;28;20094;-41
2021/01/03 07:54:56;;;;;;;63.28;30.80;;;-2.70;89.40;;;-3.28;71.47;91404.03;4987204;28;20026;-40
2021/01/03 07:57:26;;;;;;;53.47;27.02;;;-2.70;89.40;;;-3.14;71.00;91396.50;4985892;28;20027;-40
2021/01/03 08:00:00;;;;;;;48.95;23.83;;;-2.60;89.40;;;-3.11;71.45;91401.28;4987125;28;20034;-40
2021/01/03 08:02:35;;;;;;;40.15;21.10;;;-2.60;89.50;;;-2.88;70.99;91395.63;4986593;28;20033;-40
2021/01/03 08:05:04;;;;;;;43.45;24.80;;;-2.40;89.30;;;-2.85;70.34;91404.84;4986425;28;20030;-40
2021/01/03 08:07:31;;;;;;;54.75;27.33;;;-2.40;88.90;;;-3.21;70.92;91406.47;4960616;28;20054;-40
